Current Weather

Dr Luis Maria Argana Intl

Dr Luis Maria Argana Intl, Paraguay (SGME)

Report from: Saturday, February 4, 2023 6:00 AM -03
Current time: Sunday, February 5, 2023 1:56 AM -03

Nearby weather
Weather history
Weather forecast

Temperature23.0°C (73.4°F)
Dew point20.0°C (68.0°F)
Winds 3 kts (1.5 m/s, 3.5 mph) South-Southwest (200°)
Clouds Sky clear
Altimeter29.88 in.Hg (1012 mB)
Relative humidity83 %
Density altitude1,289 ft. (393 m)
Remarks Ceiling and visibility OK
Flight conditions Visual Meteorological Conditions
Raw dataSGME 040900Z 20003KT CAVOK 23/20 Q1012
An unhandled exception has occurred. See browser dev tools for details. Reload 🗙